Open Full Screen Window  High Contrast Mode
Wind Gusting 14 knots
09
January 18, 2017 3:00 AM EST
Weather Information
Wind Direction
  260 °
Wind Speed
  09 kt (10 mph)
Wind Gust
  14 kt (16 mph)
Altimeter
30.06 in
Visibility
10 SM
Temperature
06° C
43° F
Dewpoint
05° C
41° F
Humidity
93%
1hr Rain Fall
00.00 in.
24hr Rain Fall
00.14 in.
Sky Condition
Overcast @ 1,800 ft
Broken @ 1,400 ft
MVFR

METAR KI69 180800Z AUTO 26009G14KT 10SM BKN014 OVC018 06/05 A3006 RMK AO2 T00600053

*Background is not an actual portrayal of the airport.